Lake Arrowhead, Georgia
Current Conditions -  °F | °C
As of 8:15 PM on Sunday 23 Nov 2014 (Local Time) from KCNI Reporting Station
Overcast Overcast  
Wind Chill: 55°   Ceiling: 500
Heat Index: 55°   Visibility: 10mi
Dew Point: 54°   Wind: 5mph
Humidity: 94%   Direction: 150°SSE
Pressure: 29.71"   Gusts: NA
Location:  34.3309°N, 84.5894°W
Report Text: KCNI 240115Z AUTO 15004KT 10SM OVC005 13/12 A2971 RMK AO2
Loading
Personal Weather Stations






























Interactive Weather Map New forecast layout! Learn more

10-Day Weather Forecast

Advertisements
Track Severe Weather on mobile